Terminal Aerodrome Forecast
Issued by NWS

Home | Current Version | Previous Version | Text Only | Print | Product List | Glossary On
Versions: 1 2 3 4 5 6 7 8 9 10 11 12 13 14 15 16 17 18 19 20 21 22 23 24 25 26
000
FTUS41 KBUF 041733
TAFJHW
TAF
KJHW 041733Z 0418/0518 23015G24KT P6SM SCT140 BKN250
     FM042130 24012G19KT 6SM -SHRA VCTS BKN060CB
     FM050300 27006KT P6SM VCSH BKN035
     FM050500 27004KT P6SM OVC025
     FM050800 VRB03KT P6SM VCSH BKN007
     FM051200 00000KT P6SM BKN025
     FM051400 00000KT P6SM SCT025 BKN060
     FM051700 36007KT P6SM VCSH OVC100
      AMD LTD TO CLD VIS AND WIND=

USA.gov is the U.S. government's official web portal to all federal, state and local government web resources and services.